Time;durP1;ratioP1;P1;durP2;ratioP2;P2;SDS_P1;SDS_P2;PMS_P1;PMS_P2;Temp;Humidity;BMP_temperature;BMP_pressure;BME280_temperature;BME280_humidity;BME280_pressure;Samples;Min_cycle;Max_cycle;Signal;HPM_P1;HPM_P2
2024/01/04 00:00:09;;;;;;;3.77;1.97;;;;;;;;;;5033726;28;20973;-80
2024/01/04 00:02:35;;;;;;;4.60;1.20;;;;;;;;;;5033309;28;20478;-80
2024/01/04 00:05:03;;;;;;;2.53;1.70;;;;;;;;;;5033609;28;20468;-80
2024/01/04 00:07:29;;;;;;;3.53;1.90;;;;;;;;;;5033335;28;20918;-80
2024/01/04 00:09:56;;;;;;;2.30;1.73;;;;;;;;;;5033664;28;20524;-79
2024/01/04 00:12:22;;;;;;;2.13;1.93;;;;;;;;;;5033372;28;20547;-79
2024/01/04 00:14:49;;;;;;;2.60;1.20;;;;;;;;;;5033758;28;20496;-79
2024/01/04 00:17:16;;;;;;;3.80;1.50;;;;;;;;;;5033398;28;20556;-79
2024/01/04 00:19:43;;;;;;;2.80;1.30;;;;;;;;;;5033761;28;20519;-79
2024/01/04 00:22:09;;;;;;;4.60;1.50;;;;;;;;;;5033257;28;20985;-79
2024/01/04 00:24:36;;;;;;;4.07;1.40;;;;;;;;;;5033500;28;20564;-79
2024/01/04 00:27:02;;;;;;;2.47;1.03;;;;;;;;;;5033057;28;20563;-79
2024/01/04 00:29:28;;;;;;;4.77;1.23;;;;;;;;;;5033655;28;20523;-79
2024/01/04 00:31:56;;;;;;;2.60;1.20;;;;;;;;;;5033215;28;20556;-79
2024/01/04 00:34:23;;;;;;;3.57;1.70;;;;;;;;;;5033212;28;20511;-79
2024/01/04 00:36:50;;;;;;;3.87;1.27;;;;;;;;;;5033020;28;20548;-79
2024/01/04 00:39:17;;;;;;;4.23;1.23;;;;;;;;;;5033781;28;20523;-79
2024/01/04 00:41:44;;;;;;;3.63;1.47;;;;;;;;;;5033054;28;20464;-79
2024/01/04 00:44:11;;;;;;;1.90;1.10;;;;;;;;;;5033455;28;20484;-79
2024/01/04 00:46:37;;;;;;;2.13;1.50;;;;;;;;;;5033053;28;20532;-79
2024/01/04 00:49:03;;;;;;;2.90;1.07;;;;;;;;;;5033371;28;20547;-79
2024/01/04 00:51:32;;;;;;;2.23;1.47;;;;;;;;;;5032863;28;20528;-79
2024/01/04 00:53:58;;;;;;;4.60;2.03;;;;;;;;;;5033227;28;20440;-79
2024/01/04 00:56:25;;;;;;;1.40;1.30;;;;;;;;;;5032541;28;21025;-80
2024/01/04 00:58:51;;;;;;;2.40;1.20;;;;;;;;;;5032963;28;20548;-79
2024/01/04 01:01:19;;;;;;;9.90;1.77;;;;;;;;;;5032612;28;20850;-81
2024/01/04 01:03:45;;;;;;;4.13;1.20;;;;;;;;;;5033164;28;20564;-79
2024/01/04 01:06:12;;;;;;;1.60;1.50;;;;;;;;;;5032833;28;20544;-79
2024/01/04 01:08:39;;;;;;;2.97;1.10;;;;;;;;;;5032468;28;20892;-79
2024/01/04 01:11:06;;;;;;;2.10;1.50;;;;;;;;;;5032911;28;20886;-79
2024/01/04 01:13:32;;;;;;;2.77;1.33;;;;;;;;;;5033146;28;20551;-79
2024/01/04 01:15:58;;;;;;;8.07;0.93;;;;;;;;;;5033063;28;20552;-79
2024/01/04 01:18:25;;;;;;;1.40;0.90;;;;;;;;;;5032757;28;20556;-79
2024/01/04 01:20:51;;;;;;;2.53;1.40;;;;;;;;;;5033062;28;20468;-80
2024/01/04 01:23:18;;;;;;;4.37;1.13;;;;;;;;;;5032681;28;20500;-79
2024/01/04 01:25:45;;;;;;;2.10;1.30;;;;;;;;;;5033030;28;20543;-79
2024/01/04 01:28:12;;;;;;;3.37;1.90;;;;;;;;;;5032736;28;20583;-79
2024/01/04 01:30:38;;;;;;;4.33;1.10;;;;;;;;;;5032755;28;20897;-79
2024/01/04 01:33:05;;;;;;;1.00;1.00;;;;;;;;;;5032373;28;20555;-80
2024/01/04 01:35:32;;;;;;;1.80;0.93;;;;;;;;;;5032608;28;20471;-79
2024/01/04 01:37:58;;;;;;;5.00;0.90;;;;;;;;;;5032343;28;20588;-80
2024/01/04 01:40:25;;;;;;;1.80;0.97;;;;;;;;;;5032897;28;20463;-79
2024/01/04 01:42:53;;;;;;;3.17;0.93;;;;;;;;;;5032399;28;20500;-79
2024/01/04 01:45:21;;;;;;;1.50;0.70;;;;;;;;;;5033853;28;20539;-79
2024/01/04 01:47:48;;;;;;;2.20;0.70;;;;;;;;;;5035986;28;20555;-79
2024/01/04 01:50:15;;;;;;;1.00;0.77;;;;;;;;;;5036576;28;20523;-79
2024/01/04 01:52:41;;;;;;;5.53;1.53;;;;;;;;;;5036070;28;20555;-79
2024/01/04 01:55:09;;;;;;;7.60;1.20;;;;;;;;;;5036297;28;20907;-79
2024/01/04 01:57:35;;;;;;;2.13;1.63;;;;;;;;;;5035883;28;20830;-79
2024/01/04 02:00:04;;;;;;;5.00;1.30;;;;;;;;;;5036062;28;20543;-79
2024/01/04 02:02:31;;;;;;;3.60;1.13;;;;;;;;;;5035854;28;20900;-79
2024/01/04 02:04:58;;;;;;;4.27;0.80;;;;;;;;;;5036106;28;20575;-79
2024/01/04 02:07:24;;;;;;;0.70;0.67;;;;;;;;;;5035807;28;20522;-80
2024/01/04 02:09:50;;;;;;;1.43;0.67;;;;;;;;;;5036172;28;20524;-79
2024/01/04 02:12:17;;;;;;;1.23;0.70;;;;;;;;;;5035591;28;20552;-79
2024/01/04 02:14:44;;;;;;;6.50;1.00;;;;;;;;;;5035709;28;20552;-79
2024/01/04 02:17:12;;;;;;;2.63;0.80;;;;;;;;;;5035634;28;20486;-79
2024/01/04 02:19:39;;;;;;;1.33;1.13;;;;;;;;;;5035965;28;20528;-79
2024/01/04 02:22:05;;;;;;;1.63;0.73;;;;;;;;;;5035146;28;21068;-79
2024/01/04 02:24:33;;;;;;;3.70;1.17;;;;;;;;;;5035932;28;20492;-80
2024/01/04 02:26:59;;;;;;;4.80;1.03;;;;;;;;;;5035366;28;20559;-80
2024/01/04 02:29:26;;;;;;;1.53;0.67;;;;;;;;;;5035851;28;20520;-79
2024/01/04 02:31:52;;;;;;;2.07;1.03;;;;;;;;;;5036013;28;20568;-79
2024/01/04 02:34:19;;;;;;;2.40;0.87;;;;;;;;;;5035811;28;20541;-79
2024/01/04 02:36:45;;;;;;;3.83;1.00;;;;;;;;;;5035123;28;20545;-79
2024/01/04 02:39:11;;;;;;;5.00;0.97;;;;;;;;;;5035592;28;20535;-80
2024/01/04 02:41:40;;;;;;;1.13;1.03;;;;;;;;;;5034825;28;20544;-79
2024/01/04 02:44:06;;;;;;;1.90;0.90;;;;;;;;;;5035740;28;20477;-79
2024/01/04 02:46:33;;;;;;;1.90;0.87;;;;;;;;;;5035002;28;20524;-80
2024/01/04 02:48:59;;;;;;;0.63;0.60;;;;;;;;;;5035108;28;20540;-80
2024/01/04 02:51:25;;;;;;;4.47;0.73;;;;;;;;;;5034894;28;20524;-80
2024/01/04 02:53:52;;;;;;;7.73;0.90;;;;;;;;;;5035273;28;20525;-78
2024/01/04 02:56:18;;;;;;;2.10;0.93;;;;;;;;;;5034856;28;20519;-82
2024/01/04 02:58:46;;;;;;;3.67;0.90;;;;;;;;;;5035053;28;20544;-80
2024/01/04 03:01:18;;;;;;;1.47;0.60;;;;;;;;;;5034925;28;20531;-80
2024/01/04 03:03:45;;;;;;;0.90;0.90;;;;;;;;;;5034756;28;20563;-78
2024/01/04 03:06:11;;;;;;;2.13;1.23;;;;;;;;;;5035036;28;20548;-80
2024/01/04 03:08:37;;;;;;;2.40;0.77;;;;;;;;;;5034785;28;20916;-78
2024/01/04 03:11:04;;;;;;;3.87;1.30;;;;;;;;;;5035079;28;20531;-78
2024/01/04 03:13:30;;;;;;;1.30;1.20;;;;;;;;;;5034331;28;20496;-80
2024/01/04 03:15:58;;;;;;;2.87;1.43;;;;;;;;;;5034805;28;20891;-78
2024/01/04 03:18:24;;;;;;;2.10;1.80;;;;;;;;;;5034182;28;21053;-80
2024/01/04 03:20:51;;;;;;;1.90;1.80;;;;;;;;;;5034852;28;20523;-80
2024/01/04 03:23:17;;;;;;;1.93;1.83;;;;;;;;;;5034153;28;20622;-80
2024/01/04 03:25:44;;;;;;;3.40;2.10;;;;;;;;;;5034696;28;20704;-80
2024/01/04 03:28:10;;;;;;;2.97;1.73;;;;;;;;;;5034564;28;20580;-80
2024/01/04 03:30:36;;;;;;;2.40;1.30;;;;;;;;;;5034321;28;20520;-78
2024/01/04 03:33:04;;;;;;;2.27;1.40;;;;;;;;;;5034304;28;20572;-78
2024/01/04 03:35:31;;;;;;;3.90;1.97;;;;;;;;;;5034115;28;20540;-80
2024/01/04 03:37:57;;;;;;;4.93;1.80;;;;;;;;;;5034286;28;20552;-80
2024/01/04 03:40:23;;;;;;;2.43;1.70;;;;;;;;;;5034169;28;20950;-78
2024/01/04 03:42:50;;;;;;;2.50;1.73;;;;;;;;;;5033894;28;20552;-80
2024/01/04 03:45:16;;;;;;;5.80;1.70;;;;;;;;;;5033869;28;20984;-80
2024/01/04 03:47:43;;;;;;;3.53;1.90;;;;;;;;;;5033670;28;20468;-80
2024/01/04 03:50:11;;;;;;;1.43;1.23;;;;;;;;;;5034220;28;20549;-80
2024/01/04 03:52:37;;;;;;;1.63;1.53;;;;;;;;;;5033580;28;20476;-80
2024/01/04 03:55:04;;;;;;;2.37;1.90;;;;;;;;;;5034383;28;20885;-80
2024/01/04 03:57:30;;;;;;;4.00;2.13;;;;;;;;;;5033741;28;20913;-80
2024/01/04 03:59:56;;;;;;;1.90;1.70;;;;;;;;;;5033778;28;20544;-80
2024/01/04 04:02:23;;;;;;;1.93;1.70;;;;;;;;;;5033477;28;20552;-80
2024/01/04 04:04:50;;;;;;;3.40;2.20;;;;;;;;;;5033907;28;20568;-80
2024/01/04 04:07:17;;;;;;;3.63;1.10;;;;;;;;;;5033404;28;20572;-80
2024/01/04 04:09:44;;;;;;;3.27;1.13;;;;;;;;;;5033352;28;21026;-80
2024/01/04 04:12:10;;;;;;;0.93;0.70;;;;;;;;;;5033389;28;20555;-80
2024/01/04 04:14:36;;;;;;;2.37;1.33;;;;;;;;;;5033434;28;20539;-80
2024/01/04 04:17:03;;;;;;;4.10;1.40;;;;;;;;;;5033315;28;20560;-80
2024/01/04 04:19:30;;;;;;;2.93;1.30;;;;;;;;;;5033886;28;20532;-80
2024/01/04 04:21:56;;;;;;;4.10;1.40;;;;;;;;;;5033130;28;20548;-80
2024/01/04 04:24:24;;;;;;;1.00;1.00;;;;;;;;;;5033212;28;20571;-80
2024/01/04 04:26:50;;;;;;;3.07;1.20;;;;;;;;;;5033867;28;20461;-80
2024/01/04 04:29:17;;;;;;;4.47;1.70;;;;;;;;;;5033630;28;20882;-80
2024/01/04 04:31:43;;;;;;;2.00;1.20;;;;;;;;;;5033027;28;21334;-80
2024/01/04 04:34:10;;;;;;;6.00;1.40;;;;;;;;;;5033451;28;20540;-80
2024/01/04 04:36:36;;;;;;;1.10;1.00;;;;;;;;;;5032990;28;20442;-80
2024/01/04 04:39:03;;;;;;;2.77;1.37;;;;;;;;;;5033476;28;20943;-80
2024/01/04 04:41:31;;;;;;;2.30;0.80;;;;;;;;;;5033096;28;20527;-80
2024/01/04 04:43:57;;;;;;;1.37;0.90;;;;;;;;;;5033252;28;20523;-80
2024/01/04 04:46:23;;;;;;;1.40;0.90;;;;;;;;;;5032890;28;20531;-81
2024/01/04 04:48:54;;;;;;;2.90;1.10;;;;;;;;;;5033358;28;20499;-80
2024/01/04 04:51:21;;;;;;;3.80;1.00;;;;;;;;;;5032999;28;20433;-81
2024/01/04 04:53:47;;;;;;;4.27;1.07;;;;;;;;;;5033524;28;20532;-80
2024/01/04 04:56:14;;;;;;;5.57;1.27;;;;;;;;;;5033425;28;20520;-80
2024/01/04 04:58:42;;;;;;;5.83;1.10;;;;;;;;;;5032887;28;20567;-80
2024/01/04 05:01:09;;;;;;;1.33;0.90;;;;;;;;;;5032965;28;21013;-80
2024/01/04 05:03:35;;;;;;;1.07;1.03;;;;;;;;;;5032499;28;20551;-80
2024/01/04 05:06:02;;;;;;;1.37;0.77;;;;;;;;;;5033026;28;20567;-80
2024/01/04 05:08:28;;;;;;;2.03;0.97;;;;;;;;;;5032477;28;20555;-80
2024/01/04 05:10:54;;;;;;;3.40;1.37;;;;;;;;;;5033270;28;20523;-80
2024/01/04 05:13:21;;;;;;;3.50;1.23;;;;;;;;;;5032532;28;20500;-80
2024/01/04 05:15:49;;;;;;;2.20;1.20;;;;;;;;;;5033073;28;20540;-80
2024/01/04 05:18:15;;;;;;;6.13;1.10;;;;;;;;;;5032683;28;20551;-80
2024/01/04 05:20:41;;;;;;;2.73;1.10;;;;;;;;;;5034877;28;20523;-80
2024/01/04 05:23:08;;;;;;;4.03;0.90;;;;;;;;;;5036398;28;20564;-80
2024/01/04 05:25:34;;;;;;;1.27;0.80;;;;;;;;;;5036965;28;20571;-80
2024/01/04 05:28:01;;;;;;;2.07;1.10;;;;;;;;;;5036107;28;21078;-80
2024/01/04 05:30:27;;;;;;;6.43;1.53;;;;;;;;;;5036963;28;20531;-80
2024/01/04 05:32:55;;;;;;;0.80;0.80;;;;;;;;;;5036243;28;20579;-80
2024/01/04 05:35:22;;;;;;;1.97;0.90;;;;;;;;;;5036784;28;20542;-80
2024/01/04 05:37:48;;;;;;;3.33;1.07;;;;;;;;;;5036435;28;20829;-80
2024/01/04 05:40:16;;;;;;;2.70;1.07;;;;;;;;;;5036751;28;20535;-80
2024/01/04 05:42:42;;;;;;;3.17;1.13;;;;;;;;;;5036462;28;21069;-80
2024/01/04 05:45:09;;;;;;;0.90;0.80;;;;;;;;;;5036758;28;20571;-80
2024/01/04 05:47:35;;;;;;;2.30;1.13;;;;;;;;;;5036309;28;20555;-80
2024/01/04 05:50:04;;;;;;;2.07;0.80;;;;;;;;;;5036510;28;20448;-80
2024/01/04 05:52:30;;;;;;;3.70;1.60;;;;;;;;;;5036215;28;20475;-80
2024/01/04 05:54:57;;;;;;;1.60;1.10;;;;;;;;;;5036398;28;20543;-80
2024/01/04 05:57:26;;;;;;;4.73;1.23;;;;;;;;;;5035722;28;21094;-80
2024/01/04 05:59:53;;;;;;;1.67;1.10;;;;;;;;;;5036018;28;20547;-80
2024/01/04 06:02:19;;;;;;;7.13;1.03;;;;;;;;;;5035527;28;20556;-80
2024/01/04 06:04:45;;;;;;;1.30;0.87;;;;;;;;;;5035859;28;20571;-79
2024/01/04 06:07:13;;;;;;;3.30;1.07;;;;;;;;;;5035843;28;20499;-80
2024/01/04 06:09:40;;;;;;;2.03;1.00;;;;;;;;;;5036109;28;20516;-80
2024/01/04 06:12:06;;;;;;;5.43;1.20;;;;;;;;;;5035901;28;20547;-80
2024/01/04 06:14:33;;;;;;;2.20;1.47;;;;;;;;;;5035723;28;21025;-80
2024/01/04 06:16:59;;;;;;;3.83;1.00;;;;;;;;;;5035653;28;20513;-80
2024/01/04 06:19:26;;;;;;;1.50;1.27;;;;;;;;;;5035994;28;20528;-80
2024/01/04 06:21:52;;;;;;;1.70;1.10;;;;;;;;;;5035569;28;20543;-80
2024/01/04 06:24:20;;;;;;;2.90;1.03;;;;;;;;;;5035814;28;20909;-80
2024/01/04 06:26:47;;;;;;;1.17;0.83;;;;;;;;;;5035124;28;21065;-80
2024/01/04 06:29:13;;;;;;;6.00;1.20;;;;;;;;;;5035779;28;20531;-80
2024/01/04 06:31:39;;;;;;;2.40;1.70;;;;;;;;;;5034541;28;20894;-80
2024/01/04 06:34:06;;;;;;;2.77;1.07;;;;;;;;;;5035742;28;20524;-80
2024/01/04 06:36:32;;;;;;;5.57;1.30;;;;;;;;;;5034257;28;20523;-80
2024/01/04 06:38:58;;;;;;;0.87;0.80;;;;;;;;;;5035691;28;20527;-80
2024/01/04 06:41:29;;;;;;;3.23;1.00;;;;;;;;;;5034900;28;20519;-81
2024/01/04 06:43:56;;;;;;;1.50;1.10;;;;;;;;;;5035785;28;20429;-80
2024/01/04 06:46:22;;;;;;;1.33;1.23;;;;;;;;;;5034676;28;21092;-80
2024/01/04 06:48:49;;;;;;;7.93;1.00;;;;;;;;;;5031052;28;20536;-80
2024/01/04 06:51:15;;;;;;;3.03;1.80;;;;;;;;;;5035195;28;20531;-80
2024/01/04 06:53:41;;;;;;;1.63;1.33;;;;;;;;;;5035059;28;20548;-80
2024/01/04 06:56:08;;;;;;;5.87;1.43;;;;;;;;;;5035431;28;20905;-80
2024/01/04 06:58:36;;;;;;;2.80;1.30;;;;;;;;;;5034438;28;20563;-80
2024/01/04 07:01:02;;;;;;;1.60;1.17;;;;;;;;;;5035130;28;20440;-80
2024/01/04 07:03:30;;;;;;;0.90;0.90;;;;;;;;;;5034418;28;20555;-80
2024/01/04 07:05:56;;;;;;;2.43;1.27;;;;;;;;;;5034720;28;21061;-80
2024/01/04 07:08:23;;;;;;;1.47;1.20;;;;;;;;;;5034700;28;20858;-80
2024/01/04 07:10:50;;;;;;;3.27;1.10;;;;;;;;;;5034700;28;20451;-80
2024/01/04 07:13:16;;;;;;;2.53;1.20;;;;;;;;;;5034525;28;20515;-79
2024/01/04 07:15:44;;;;;;;7.13;1.10;;;;;;;;;;5034939;28;20536;-80
2024/01/04 07:18:10;;;;;;;1.60;1.20;;;;;;;;;;5034207;28;20532;-81
2024/01/04 07:20:40;;;;;;;1.20;1.10;;;;;;;;;;5034668;28;21026;-80
2024/01/04 07:23:06;;;;;;;1.63;0.90;;;;;;;;;;5034388;28;20436;-80
2024/01/04 07:25:34;;;;;;;1.70;1.30;;;;;;;;;;5034332;28;20542;-80
2024/01/04 07:28:00;;;;;;;4.40;1.13;;;;;;;;;;5034728;28;20473;-80
2024/01/04 07:30:27;;;;;;;1.60;1.00;;;;;;;;;;5034564;28;21038;-80
2024/01/04 07:32:54;;;;;;;1.83;1.50;;;;;;;;;;5034362;28;20978;-80
2024/01/04 07:35:23;;;;;;;3.60;1.60;;;;;;;;;;5034294;28;20504;-80
2024/01/04 07:37:50;;;;;;;2.77;1.27;;;;;;;;;;5034623;28;20471;-80
2024/01/04 07:40:16;;;;;;;1.50;1.00;;;;;;;;;;5034200;28;20556;-80
2024/01/04 07:42:42;;;;;;;2.10;1.33;;;;;;;;;;5033679;28;20532;-80
2024/01/04 07:45:09;;;;;;;1.70;1.10;;;;;;;;;;5034158;28;20568;-78
2024/01/04 07:47:37;;;;;;;0.73;0.73;;;;;;;;;;5034493;28;20437;-78
2024/01/04 07:50:05;;;;;;;1.13;0.83;;;;;;;;;;5033964;28;20473;-78
2024/01/04 07:52:32;;;;;;;3.40;1.20;;;;;;;;;;5034000;28;20872;-78
2024/01/04 07:54:58;;;;;;;1.13;1.03;;;;;;;;;;5033719;28;20577;-80
2024/01/04 07:57:25;;;;;;;1.23;1.23;;;;;;;;;;5033882;28;20444;-80
2024/01/04 07:59:51;;;;;;;2.83;1.10;;;;;;;;;;5033415;28;21068;-78
2024/01/04 08:02:18;;;;;;;2.00;1.10;;;;;;;;;;5034054;28;20532;-78
2024/01/04 08:04:44;;;;;;;4.70;1.30;;;;;;;;;;5033431;28;20572;-78
2024/01/04 08:07:12;;;;;;;0.60;0.60;;;;;;;;;;5034039;28;20519;-78
2024/01/04 08:09:38;;;;;;;2.00;1.40;;;;;;;;;;5033167;28;20547;-78
2024/01/04 08:12:05;;;;;;;2.17;1.10;;;;;;;;;;5033968;28;20520;-78
2024/01/04 08:14:33;;;;;;;1.10;1.00;;;;;;;;;;5033565;28;21030;-78
2024/01/04 08:16:59;;;;;;;1.40;1.10;;;;;;;;;;5033914;28;20502;-80
2024/01/04 08:19:26;;;;;;;3.13;1.60;;;;;;;;;;5033121;28;20512;-80
2024/01/04 08:21:52;;;;;;;5.50;2.43;;;;;;;;;;5033711;28;20515;-78
2024/01/04 08:24:20;;;;;;;3.80;1.47;;;;;;;;;;5032948;28;20477;-78
2024/01/04 08:26:46;;;;;;;2.87;1.83;;;;;;;;;;5033615;28;20575;-80
2024/01/04 08:29:13;;;;;;;1.60;0.87;;;;;;;;;;5032981;28;20564;-78
2024/01/04 08:31:39;;;;;;;2.07;1.30;;;;;;;;;;5033313;28;20896;-80
2024/01/04 08:34:06;;;;;;;9.63;1.80;;;;;;;;;;5032801;28;21086;-80
2024/01/04 08:36:32;;;;;;;2.33;1.43;;;;;;;;;;5033493;28;20527;-80
2024/01/04 08:38:59;;;;;;;3.70;1.50;;;;;;;;;;5032728;28;21078;-81
2024/01/04 08:41:27;;;;;;;3.97;1.43;;;;;;;;;;5033455;28;20535;-80
2024/01/04 08:43:53;;;;;;;4.10;1.90;;;;;;;;;;5033078;28;20479;-80
2024/01/04 08:46:19;;;;;;;2.50;1.63;;;;;;;;;;5033043;28;21197;-80
2024/01/04 08:48:46;;;;;;;1.50;1.40;;;;;;;;;;5032913;28;20547;-80
2024/01/04 08:51:12;;;;;;;2.70;1.30;;;;;;;;;;5032785;28;20871;-80
2024/01/04 08:53:40;;;;;;;7.47;1.53;;;;;;;;;;5032450;28;20899;-80
2024/01/04 08:56:08;;;;;;;1.60;1.50;;;;;;;;;;5033304;28;20818;-78
2024/01/04 08:58:36;;;;;;;2.67;1.67;;;;;;;;;;5032918;28;20538;-78
2024/01/04 09:01:03;;;;;;;2.80;1.70;;;;;;;;;;5033128;28;20467;-79
2024/01/04 09:03:29;;;;;;;2.30;1.23;;;;;;;;;;5032860;28;20539;-78
2024/01/04 09:05:55;;;;;;;10.17;2.03;;;;;;;;;;5032991;28;20584;-79
2024/01/04 09:08:22;;;;;;;2.17;1.63;;;;;;;;;;5032647;28;20527;-79
2024/01/04 09:10:49;;;;;;;7.63;2.00;;;;;;;;;;5032976;28;20569;-78
2024/01/04 09:13:15;;;;;;;4.13;2.00;;;;;;;;;;5032672;28;20484;-78
2024/01/04 09:15:43;;;;;;;5.70;1.83;;;;;;;;;;5033281;28;20551;-79
2024/01/04 09:18:09;;;;;;;3.03;1.80;;;;;;;;;;5032988;28;20531;-79
2024/01/04 09:20:36;;;;;;;2.17;1.50;;;;;;;;;;5033372;28;20521;-79
2024/01/04 09:23:02;;;;;;;1.70;1.53;;;;;;;;;;5033529;28;20531;-79
2024/01/04 09:25:29;;;;;;;3.40;1.23;;;;;;;;;;5032780;28;20526;-79
2024/01/04 09:27:55;;;;;;;3.77;1.40;;;;;;;;;;5033167;28;21003;-79
2024/01/04 09:30:22;;;;;;;1.20;1.10;;;;;;;;;;5032834;28;20555;-78
2024/01/04 09:32:50;;;;;;;3.43;1.20;;;;;;;;;;5033467;28;20524;-79
2024/01/04 09:35:21;;;;;;;2.50;1.17;;;;;;;;;;5032552;28;20540;-79
2024/01/04 09:37:49;;;;;;;2.60;0.93;;;;;;;;;;5033561;28;20421;-79
2024/01/04 09:40:15;;;;;;;2.33;1.80;;;;;;;;;;5032730;28;20560;-79
2024/01/04 09:42:42;;;;;;;4.37;1.60;;;;;;;;;;5032955;28;20998;-79
2024/01/04 09:45:10;;;;;;;1.60;1.50;;;;;;;;;;5031798;28;20480;-79
2024/01/04 09:47:38;;;;;;;2.30;1.10;;;;;;;;;;5032505;28;20978;-79
2024/01/04 09:50:10;;;;;;;2.30;1.40;;;;;;;;;;5030563;28;20472;-79
2024/01/04 09:52:37;;;;;;;7.23;1.77;;;;;;;;;;5031961;28;20433;-78
2024/01/04 09:55:04;;;;;;;1.77;1.50;;;;;;;;;;5031440;28;20547;-79
2024/01/04 09:57:31;;;;;;;1.43;1.17;;;;;;;;;;5032573;28;21028;-80
2024/01/04 09:59:57;;;;;;;1.20;1.10;;;;;;;;;;5032103;28;20926;-80
2024/01/04 10:02:24;;;;;;;3.03;1.57;;;;;;;;;;5032482;28;20533;-80
2024/01/04 10:04:51;;;;;;;1.30;1.20;;;;;;;;;;5031991;28;20559;-79
2024/01/04 10:07:22;;;;;;;1.63;1.37;;;;;;;;;;5035077;28;20572;-79
2024/01/04 10:09:52;;;;;;;4.70;1.50;;;;;;;;;;5035511;28;20551;-79
2024/01/04 10:12:18;;;;;;;1.37;1.00;;;;;;;;;;5036411;28;20531;-79
2024/01/04 10:14:45;;;;;;;1.77;1.20;;;;;;;;;;5035711;28;20500;-80
2024/01/04 10:17:11;;;;;;;2.63;1.80;;;;;;;;;;5035124;28;20983;-81
2024/01/04 10:19:38;;;;;;;2.47;1.37;;;;;;;;;;5035386;28;20468;-79
2024/01/04 10:22:05;;;;;;;2.23;1.60;;;;;;;;;;5035650;28;20958;-79
2024/01/04 10:24:37;;;;;;;3.73;1.50;;;;;;;;;;5035171;28;20555;-78
2024/01/04 10:27:03;;;;;;;3.77;1.40;;;;;;;;;;5035789;28;20461;-79
2024/01/04 10:29:30;;;;;;;8.17;1.90;;;;;;;;;;5034992;28;20552;-79
2024/01/04 10:31:59;;;;;;;2.30;1.20;;;;;;;;;;5035760;28;20533;-79
2024/01/04 10:34:26;;;;;;;6.00;1.57;;;;;;;;;;5035595;28;20884;-78
2024/01/04 10:36:53;;;;;;;2.90;1.40;;;;;;;;;;5035988;28;20468;-79
2024/01/04 10:39:20;;;;;;;3.80;1.27;;;;;;;;;;5035503;28;20551;-79
2024/01/04 10:41:56;;;;;;;1.23;1.13;;;;;;;;;;5035518;28;20819;-78
2024/01/04 10:44:23;;;;;;;1.57;1.47;;;;;;;;;;5035309;28;20560;-80
2024/01/04 10:46:53;;;;;;;3.20;1.60;;;;;;;;;;5035593;28;20571;-80
2024/01/04 10:49:20;;;;;;;7.10;1.27;;;;;;;;;;5035124;28;20556;-80
2024/01/04 10:51:48;;;;;;;2.73;1.27;;;;;;;;;;5035290;28;20441;-79
2024/01/04 10:54:15;;;;;;;2.97;1.70;;;;;;;;;;5035052;28;20918;-79
2024/01/04 10:56:41;;;;;;;4.07;1.57;;;;;;;;;;5035675;28;20520;-79
2024/01/04 10:59:10;;;;;;;2.40;1.83;;;;;;;;;;5035237;28;20906;-79
2024/01/04 11:01:36;;;;;;;3.23;2.10;;;;;;;;;;5035192;28;20527;-79
2024/01/04 11:04:03;;;;;;;3.27;1.30;;;;;;;;;;5034938;28;20477;-79
2024/01/04 11:06:34;;;;;;;1.27;1.13;;;;;;;;;;5035486;28;20578;-79
2024/01/04 11:09:01;;;;;;;3.60;1.50;;;;;;;;;;5035088;28;20555;-78
2024/01/04 11:11:27;;;;;;;3.43;1.73;;;;;;;;;;5035362;28;20452;-79
2024/01/04 11:13:54;;;;;;;2.93;1.37;;;;;;;;;;5034844;28;20588;-78
2024/01/04 11:16:28;;;;;;;3.83;1.80;;;;;;;;;;5035227;28;21014;-79
2024/01/04 11:19:00;;;;;;;4.97;1.67;;;;;;;;;;5034645;28;20464;-79
2024/01/04 11:21:34;;;;;;;2.20;1.50;;;;;;;;;;5035126;28;20516;-78
2024/01/04 11:24:02;;;;;;;1.40;1.30;;;;;;;;;;5034624;28;20553;-78
2024/01/04 11:26:34;;;;;;;1.80;1.33;;;;;;;;;;5034984;28;20484;-80
2024/01/04 11:29:06;;;;;;;1.37;1.03;;;;;;;;;;5034645;28;20555;-81
2024/01/04 11:31:34;;;;;;;2.10;1.60;;;;;;;;;;5034848;28;20447;-79
2024/01/04 11:34:03;;;;;;;2.47;2.27;;;;;;;;;;5034329;28;20559;-79
2024/01/04 11:36:30;;;;;;;3.83;2.10;;;;;;;;;;5034468;28;21002;-79
2024/01/04 11:38:57;;;;;;;3.57;2.30;;;;;;;;;;5034084;28;20563;-79
2024/01/04 11:41:31;;;;;;;3.20;2.90;;;;;;;;;;5034217;28;20548;-79
2024/01/04 11:43:57;;;;;;;2.50;2.00;;;;;;;;;;5034177;28;20476;-78
2024/01/04 11:46:26;;;;;;;3.83;2.60;;;;;;;;;;5034127;28;21081;-78
2024/01/04 11:48:55;;;;;;;3.67;2.30;;;;;;;;;;5034894;28;20555;-79
2024/01/04 11:51:35;;;;;;;2.83;2.37;;;;;;;;;;5037582;28;20532;-79
2024/01/04 11:54:02;;;;;;;2.33;1.83;;;;;;;;;;5033809;28;20551;-80
2024/01/04 11:56:28;;;;;;;2.80;2.57;;;;;;;;;;5034349;28;20496;-80
2024/01/04 11:59:05;;;;;;;2.50;2.30;;;;;;;;;;5033749;28;20556;-80
2024/01/04 12:01:33;;;;;;;7.90;2.90;;;;;;;;;;5034093;28;20520;-77
2024/01/04 12:04:07;;;;;;;2.23;2.03;;;;;;;;;;5033462;28;20864;-78
2024/01/04 12:06:33;;;;;;;5.57;1.70;;;;;;;;;;5034192;28;20564;-79
2024/01/04 12:09:01;;;;;;;4.20;2.30;;;;;;;;;;5033894;28;20555;-80
2024/01/04 12:11:27;;;;;;;5.17;2.30;;;;;;;;;;5034390;28;20873;-79
2024/01/04 12:13:54;;;;;;;2.67;1.97;;;;;;;;;;5033521;28;20547;-79
2024/01/04 12:16:20;;;;;;;3.07;1.80;;;;;;;;;;5034133;28;20527;-79
2024/01/04 12:18:47;;;;;;;2.37;1.90;;;;;;;;;;5033411;28;20551;-78
2024/01/04 12:21:15;;;;;;;3.07;1.70;;;;;;;;;;5033862;28;20519;-80
2024/01/04 12:23:42;;;;;;;12.20;2.70;;;;;;;;;;5033454;28;20543;-80
2024/01/04 12:26:09;;;;;;;2.40;1.50;;;;;;;;;;5033712;28;21026;-80
2024/01/04 12:28:35;;;;;;;1.50;1.40;;;;;;;;;;5032727;28;20564;-80
2024/01/04 12:31:02;;;;;;;1.13;1.13;;;;;;;;;;5033931;28;20520;-80
2024/01/04 12:33:29;;;;;;;2.20;1.10;;;;;;;;;;5033190;28;20488;-80
2024/01/04 12:35:59;;;;;;;2.00;1.83;;;;;;;;;;5034076;28;20560;-80
2024/01/04 12:38:28;;;;;;;1.73;1.30;;;;;;;;;;5033115;28;20460;-80
2024/01/04 12:40:54;;;;;;;8.93;1.90;;;;;;;;;;5033789;28;20448;-78
2024/01/04 12:43:21;;;;;;;3.80;1.77;;;;;;;;;;5033933;28;20881;-78
2024/01/04 12:45:49;;;;;;;6.00;1.70;;;;;;;;;;5033264;28;20540;-80
2024/01/04 12:48:19;;;;;;;4.60;1.53;;;;;;;;;;5033054;28;20551;-80
2024/01/04 12:50:46;;;;;;;3.40;1.70;;;;;;;;;;5034430;28;20515;-80
2024/01/04 12:53:12;;;;;;;2.30;1.50;;;;;;;;;;5034004;28;20478;-79
2024/01/04 12:55:40;;;;;;;7.33;2.20;;;;;;;;;;5033362;28;20920;-79
2024/01/04 12:58:06;;;;;;;4.03;1.60;;;;;;;;;;5032954;28;20899;-80
2024/01/04 13:00:33;;;;;;;2.23;2.03;;;;;;;;;;5033149;28;20528;-79
2024/01/04 13:02:59;;;;;;;3.97;2.13;;;;;;;;;;5033385;28;21025;-79
2024/01/04 13:05:25;;;;;;;1.87;1.63;;;;;;;;;;5032698;28;20498;-79
2024/01/04 13:07:52;;;;;;;1.50;1.40;;;;;;;;;;5033006;28;20907;-78
2024/01/04 13:10:19;;;;;;;2.30;1.83;;;;;;;;;;5032883;28;20469;-79
2024/01/04 13:12:47;;;;;;;1.97;1.87;;;;;;;;;;5033079;28;21022;-79
2024/01/04 13:15:13;;;;;;;4.63;1.90;;;;;;;;;;5032980;28;20844;-79
2024/01/04 13:17:39;;;;;;;2.37;1.63;;;;;;;;;;5033345;28;20503;-79
2024/01/04 13:20:07;;;;;;;5.23;1.93;;;;;;;;;;5032692;28;20564;-79
2024/01/04 13:22:34;;;;;;;4.30;2.20;;;;;;;;;;5033318;28;20455;-79
2024/01/04 13:25:00;;;;;;;1.60;1.50;;;;;;;;;;5032852;28;21047;-79
2024/01/04 13:27:28;;;;;;;2.40;2.10;;;;;;;;;;5032886;28;21077;-79
2024/01/04 13:29:57;;;;;;;2.13;1.60;;;;;;;;;;5032972;28;20518;-79
2024/01/04 13:32:23;;;;;;;6.70;1.60;;;;;;;;;;5033054;28;20604;-79
2024/01/04 13:34:50;;;;;;;2.60;1.93;;;;;;;;;;5032456;28;20567;-79
2024/01/04 13:37:16;;;;;;;4.90;1.77;;;;;;;;;;5033253;28;20875;-79
2024/01/04 13:39:44;;;;;;;6.37;1.93;;;;;;;;;;5032461;28;20900;-78
2024/01/04 13:42:11;;;;;;;3.40;1.77;;;;;;;;;;5035120;28;20448;-79
2024/01/04 13:44:37;;;;;;;4.60;1.50;;;;;;;;;;5036488;28;20480;-79
2024/01/04 13:47:06;;;;;;;2.63;1.80;;;;;;;;;;5036672;28;20567;-79
2024/01/04 13:49:32;;;;;;;3.80;2.03;;;;;;;;;;5035099;28;20832;-79
2024/01/04 13:51:59;;;;;;;1.67;1.40;;;;;;;;;;5036775;28;20544;-79
2024/01/04 13:54:25;;;;;;;3.27;2.57;;;;;;;;;;5036253;28;20563;-79
2024/01/04 13:56:52;;;;;;;6.13;2.30;;;;;;;;;;5036867;28;20873;-79
2024/01/04 13:59:19;;;;;;;3.67;2.13;;;;;;;;;;5035895;28;20472;-79
2024/01/04 14:01:46;;;;;;;2.93;2.70;;;;;;;;;;5036420;28;20444;-79
2024/01/04 14:04:13;;;;;;;4.93;2.13;;;;;;;;;;5035780;28;20551;-79
2024/01/04 14:06:40;;;;;;;3.53;2.07;;;;;;;;;;5036071;28;21002;-79
2024/01/04 14:09:06;;;;;;;3.30;2.47;;;;;;;;;;5035783;28;20492;-78
2024/01/04 14:11:33;;;;;;;3.20;2.37;;;;;;;;;;5036402;28;20532;-79
2024/01/04 14:13:59;;;;;;;5.33;2.30;;;;;;;;;;5035779;28;20997;-78
2024/01/04 14:16:26;;;;;;;4.33;2.63;;;;;;;;;;5036038;28;20544;-79
2024/01/04 14:18:52;;;;;;;3.43;3.10;;;;;;;;;;5035480;28;21093;-79
2024/01/04 14:21:21;;;;;;;6.00;3.40;;;;;;;;;;5036597;28;20527;-79
2024/01/04 14:23:48;;;;;;;7.20;4.17;;;;;;;;;;5035238;28;20583;-79
2024/01/04 14:26:15;;;;;;;5.10;2.77;;;;;;;;;;5034445;28;20534;-79
2024/01/04 14:28:41;;;;;;;4.30;2.90;;;;;;;;;;5035909;28;20472;-79
2024/01/04 14:31:08;;;;;;;5.33;2.80;;;;;;;;;;5036347;28;20535;-79
2024/01/04 14:33:34;;;;;;;2.37;2.17;;;;;;;;;;5035696;28;20544;-79
2024/01/04 14:36:00;;;;;;;4.70;1.93;;;;;;;;;;5035523;28;21040;-79
2024/01/04 14:38:28;;;;;;;3.50;2.30;;;;;;;;;;5035659;28;20880;-79
2024/01/04 14:40:55;;;;;;;4.23;1.80;;;;;;;;;;5037190;28;20867;-81